Time;durP1;ratioP1;P1;durP2;ratioP2;P2;SDS_P1;SDS_P2;PMS_P1;PMS_P2;Temp;Humidity;BMP_temperature;BMP_pressure;BME280_temperature;BME280_humidity;BME280_pressure;Samples;Min_cycle;Max_cycle;Signal;HPM_P1;HPM_P2
2022/03/14 00:00:52;;;;;;;40.20;25.23;;;;;;;-0.63;57.55;100947.67;1740362;81;21066;-64
2022/03/14 00:03:20;;;;;;;40.45;24.12;;;;;;;-0.61;57.71;100949.42;1736574;81;20957;-64
2022/03/14 00:05:46;;;;;;;36.73;23.98;;;;;;;-0.59;57.76;100941.73;1736434;81;20888;-63
2022/03/14 00:08:13;;;;;;;37.70;23.05;;;;;;;-0.59;57.71;100943.02;1708880;82;21469;-63
2022/03/14 00:10:41;;;;;;;44.88;24.23;;;;;;;-0.61;57.81;100948.56;1707043;82;21043;-63
2022/03/14 00:13:09;;;;;;;;;;;;;;;-0.62;58.14;100950.67;1751157;81;21099;-64
2022/03/14 00:15:35;;;;;;;39.58;23.75;;;;;;;-0.61;58.16;100953.70;1748326;80;20174;-64
2022/03/14 00:18:04;;;;;;;38.58;23.42;;;;;;;-0.65;58.08;100954.46;1737364;81;20973;-64
2022/03/14 00:20:31;;;;;;;36.68;24.27;;;;;;;-0.71;58.04;100961.20;1708822;82;21461;-64
2022/03/14 00:22:58;;;;;;;40.10;24.72;;;;;;;-0.73;58.19;100960.73;1701842;82;21477;-64
2022/03/14 00:25:26;;;;;;;;;;;;;;;-0.77;58.18;100955.97;1708345;82;21612;-64
2022/03/14 00:27:55;;;;;;;38.98;24.23;;;;;;;-0.83;58.39;100958.42;1736122;81;20124;-63
2022/03/14 00:30:30;;;;;;;39.85;24.20;;;;;;;-0.91;58.33;100965.10;1740954;81;21445;-63
2022/03/14 00:32:57;;;;;;;37.50;25.25;;;;;;;-0.96;58.35;100953.89;1745816;81;20894;-63
2022/03/14 00:35:24;;;;;;;40.58;23.30;;;;;;;-1.02;58.40;100967.88;1743100;81;21055;-63
2022/03/14 00:37:51;;;;;;;39.38;24.02;;;;;;;-1.07;58.54;100965.63;1740319;81;21107;-63
2022/03/14 00:40:18;;;;;;;34.05;21.60;;;;;;;-1.12;58.65;100965.56;1734008;81;20903;-64
2022/03/14 00:42:45;;;;;;;41.00;25.93;;;;;;;-1.18;58.73;100969.25;1704522;82;20979;-63
2022/03/14 00:45:11;;;;;;;33.60;22.23;;;;;;;-1.23;58.77;100962.77;1745735;81;21622;-63
2022/03/14 00:47:38;;;;;;;42.60;24.27;;;;;;;-1.25;58.89;100967.00;1707444;82;21509;-63
2022/03/14 00:50:06;;;;;;;35.97;21.50;;;;;;;-1.30;59.07;100968.59;1739452;81;21047;-63
2022/03/14 00:52:32;;;;;;;36.48;22.40;;;;;;;-1.33;59.06;100968.53;1717131;82;21519;-63
2022/03/14 00:54:59;;;;;;;35.87;21.80;;;;;;;-1.34;59.24;100968.09;1732054;80;21012;-63
2022/03/14 00:57:25;;;;;;;36.93;23.83;;;;;;;-1.32;59.26;100970.25;1750789;80;23579;-63
2022/03/14 00:59:52;;;;;;;39.55;21.48;;;;;;;-1.33;59.31;100965.97;1746930;80;20905;-63
2022/03/14 01:02:19;;;;;;;37.30;22.60;;;;;;;-1.35;59.34;100967.62;1748490;80;21067;-63
2022/03/14 01:04:45;;;;;;;37.98;21.50;;;;;;;-1.41;59.45;100972.63;1738325;81;20874;-63
2022/03/14 01:07:12;;;;;;;38.58;20.90;;;;;;;-1.45;59.50;100965.72;1747117;81;20957;-63
2022/03/14 01:09:39;;;;;;;39.70;20.97;;;;;;;-1.50;59.51;100969.88;1745754;80;21479;-63
2022/03/14 01:12:07;;;;;;;37.90;22.80;;;;;;;-1.58;59.66;100970.55;1749653;80;20945;-63
2022/03/14 01:14:34;;;;;;;33.73;20.68;;;;;;;-1.62;59.76;100969.20;1745359;80;21013;-63
2022/03/14 01:17:00;;;;;;;33.80;22.07;;;;;;;-1.65;59.88;100973.83;1740202;80;20989;-63
2022/03/14 01:19:27;;;;;;;35.50;21.87;;;;;;;-1.68;59.95;100968.64;1739655;81;20897;-63
2022/03/14 01:21:54;;;;;;;38.08;22.93;;;;;;;-1.70;60.07;100971.58;1749888;81;20933;-63
2022/03/14 01:24:20;;;;;;;33.97;21.47;;;;;;;-1.74;60.03;100970.18;1740798;81;20944;-63
2022/03/14 01:26:47;;;;;;;35.70;21.30;;;;;;;-1.77;60.28;100965.85;1712807;82;21053;-64
2022/03/14 01:29:17;;;;;;;37.53;19.87;;;;;;;-1.80;60.25;100968.34;1714176;83;21492;-63
2022/03/14 01:31:42;;;;;;;35.92;20.70;;;;;;;-1.84;60.25;100975.52;1748811;81;21363;-63
2022/03/14 01:34:08;;;;;;;35.00;20.35;;;;;;;-1.86;60.35;100975.89;1711586;82;20926;-64
2022/03/14 01:36:35;;;;;;;34.90;20.73;;;;;;;-1.88;60.37;100972.42;1741364;81;20950;-63
2022/03/14 01:39:04;;;;;;;29.63;19.55;;;;;;;-1.92;60.40;100971.50;1748955;81;21114;-63
2022/03/14 01:41:30;;;;;;;41.73;23.15;;;;;;;-1.97;60.52;100974.77;1747216;81;20867;-63
2022/03/14 01:44:01;;;;;;;42.80;22.70;;;;;;;-2.03;60.54;100977.63;1750913;81;20895;-63
2022/03/14 01:46:27;;;;;;;35.20;21.90;;;;;;;-2.08;60.51;100985.61;1746112;81;20946;-64
2022/03/14 01:48:56;;;;;;;35.53;22.27;;;;;;;-2.13;60.57;100981.20;1752301;81;20942;-64
2022/03/14 01:51:23;;;;;;;35.03;21.80;;;;;;;-2.20;60.59;100984.04;1720422;83;21031;-63
2022/03/14 01:53:50;;;;;;;37.85;23.22;;;;;;;-2.26;60.65;100989.02;1710481;82;20937;-63
2022/03/14 01:56:17;;;;;;;37.95;22.02;;;;;;;-2.32;60.74;100990.14;1722907;80;20954;-63
2022/03/14 01:58:46;;;;;;;41.70;23.45;;;;;;;-2.36;60.88;100990.88;1722254;82;21424;-63
2022/03/14 02:01:13;;;;;;;37.45;24.67;;;;;;;-2.41;61.01;100985.63;1693991;83;20951;-63
2022/03/14 02:03:40;;;;;;;31.48;19.15;;;;;;;-2.45;60.98;100988.09;1694036;83;21060;-63
2022/03/14 02:06:08;;;;;;;33.18;21.00;;;;;;;-2.50;61.04;100999.05;1739610;81;20930;-63
2022/03/14 02:08:35;;;;;;;45.52;23.38;;;;;;;-2.57;61.00;100999.73;1743012;81;21479;-63
2022/03/14 02:11:02;;;;;;;35.48;22.13;;;;;;;-2.63;61.04;101003.80;1744760;81;21482;-63
2022/03/14 02:13:28;;;;;;;43.10;24.15;;;;;;;-2.68;61.24;100998.58;1724391;81;20928;-63
2022/03/14 02:15:55;;;;;;;37.67;22.63;;;;;;;-2.69;61.43;101000.66;1745197;81;21083;-63
2022/03/14 02:18:21;;;;;;;37.95;22.10;;;;;;;-2.72;61.49;100996.75;1743699;81;20984;-63
2022/03/14 02:20:48;;;;;;;42.63;22.80;;;;;;;-2.74;61.54;101000.98;1709916;83;21454;-63
2022/03/14 02:23:15;;;;;;;35.05;21.40;;;;;;;-2.76;61.61;101006.45;1743565;81;21089;-63
2022/03/14 02:25:51;;;;;;;38.20;22.50;;;;;;;-2.76;61.81;101002.62;1739848;81;20989;-63
2022/03/14 02:28:20;;;;;;;37.90;26.23;;;;;;;-2.79;61.84;101007.65;1739311;81;21002;-63
2022/03/14 02:30:47;;;;;;;45.45;24.00;;;;;;;-2.83;61.76;101003.26;1738543;82;20898;-63
2022/03/14 02:33:13;;;;;;;43.77;27.10;;;;;;;-2.89;61.67;101005.66;1735901;81;21455;-63
2022/03/14 02:35:42;;;;;;;49.30;25.83;;;;;;;-2.94;61.77;101001.30;1742911;81;20930;-64
2022/03/14 02:38:15;;;;;;;59.20;29.85;;;;;;;-2.98;61.89;101007.13;1740254;81;21672;-63
2022/03/14 02:40:39;;;;;;;57.35;29.25;;;;;;;-3.00;62.03;101010.04;1737669;81;21115;-63
2022/03/14 02:43:06;;;;;;;70.37;31.65;;;;;;;-3.00;62.16;101013.88;1718080;81;20929;-63
2022/03/14 02:45:33;;;;;;;75.47;35.88;;;;;;;-3.01;62.19;101010.88;1737894;80;24274;-63
2022/03/14 02:48:01;;;;;;;78.83;35.35;;;;;;;-3.00;62.29;101006.20;1733873;81;21534;-63
2022/03/14 02:50:30;;;;;;;68.37;31.85;;;;;;;-2.98;62.47;101006.27;1741354;81;21604;-63
2022/03/14 02:52:56;;;;;;;63.63;33.10;;;;;;;-2.98;62.42;101012.23;1743113;81;21472;-63
2022/03/14 02:55:24;;;;;;;75.72;31.52;;;;;;;-2.99;62.41;101011.80;1741622;81;21456;-63
2022/03/14 02:57:50;;;;;;;;;;;;;;;-3.02;62.48;101010.43;1720611;82;20949;-63
2022/03/14 03:00:17;;;;;;;78.57;33.13;;;;;;;-3.01;62.80;101008.32;1716994;82;20091;-63
2022/03/14 03:02:43;;;;;;;79.47;33.33;;;;;;;-3.03;62.69;101013.79;1750825;81;20978;-63
2022/03/14 03:05:11;;;;;;;86.93;34.30;;;;;;;-3.04;62.70;101012.06;1724280;82;21456;-63
2022/03/14 03:07:38;;;;;;;103.83;38.50;;;;;;;-3.04;62.76;101017.18;1717894;82;20926;-63
2022/03/14 03:10:06;;;;;;;90.72;36.85;;;;;;;-3.08;62.69;101012.81;1754035;80;20927;-63
2022/03/14 03:12:32;;;;;;;87.47;37.05;;;;;;;-3.11;62.78;101020.36;1748352;80;20898;-63
2022/03/14 03:14:59;;;;;;;82.35;34.10;;;;;;;-3.12;62.82;101023.75;1720874;81;20983;-65
2022/03/14 03:17:26;;;;;;;86.00;34.90;;;;;;;-3.13;62.97;101021.17;1743992;80;21073;-63
2022/03/14 03:19:52;;;;;;;91.27;38.23;;;;;;;-3.15;63.11;101021.11;1717371;82;20914;-63
2022/03/14 03:22:19;;;;;;;85.62;35.75;;;;;;;-3.15;63.04;101018.56;1726317;82;20894;-63
2022/03/14 03:24:45;;;;;;;92.35;37.73;;;;;;;-3.18;63.09;101012.09;1743356;80;21017;-63
2022/03/14 03:27:12;;;;;;;85.12;37.38;;;;;;;-3.17;63.23;101024.03;1706356;82;21445;-63
2022/03/14 03:29:39;;;;;;;88.73;38.67;;;;;;;-3.18;63.24;101026.14;1755909;80;20977;-63
2022/03/14 03:32:06;;;;;;;88.33;41.35;;;;;;;-3.20;63.27;101026.49;1756076;81;21640;-64
2022/03/14 03:34:33;;;;;;;83.78;36.70;;;;;;;-3.21;63.38;101028.61;1749715;80;20904;-63
2022/03/14 03:36:59;;;;;;;67.15;32.17;;;;;;;-3.22;63.60;101027.74;1721162;81;20905;-63
2022/03/14 03:39:26;;;;;;;59.53;28.50;;;;;;;-3.21;63.71;101031.16;1744389;79;21510;-63
2022/03/14 03:41:53;;;;;;;64.87;29.55;;;;;;;-3.17;63.71;101031.69;1749938;80;21595;-63
2022/03/14 03:44:20;;;;;;;56.37;28.65;;;;;;;-3.15;63.88;101027.50;1753871;80;20883;-63
2022/03/14 03:46:46;;;;;;;56.23;30.55;;;;;;;-3.10;64.01;101022.12;1746315;81;20916;-63
2022/03/14 03:49:13;;;;;;;45.87;25.83;;;;;;;-3.04;63.92;101026.13;1747045;80;20908;-63
2022/03/14 03:51:39;;;;;;;51.55;26.40;;;;;;;-3.00;64.06;101026.65;1752658;81;20900;-63
2022/03/14 03:54:06;;;;;;;44.07;25.20;;;;;;;-2.99;64.01;101025.84;1748059;80;21269;-63
2022/03/14 03:56:34;;;;;;;46.23;24.60;;;;;;;-3.02;63.97;101023.20;1718183;82;21557;-63
2022/03/14 03:59:01;;;;;;;;;;;;;;;-2.97;63.95;101035.72;1724457;82;20930;-63
2022/03/14 04:01:29;;;;;;;38.88;23.50;;;;;;;-2.94;64.15;101031.97;1726233;81;20685;-63
2022/03/14 04:03:55;;;;;;;38.10;23.83;;;;;;;-2.95;64.02;101035.32;1729724;81;20958;-63
2022/03/14 04:06:26;;;;;;;38.43;20.80;;;;;;;-2.94;64.08;101029.41;1724519;82;21924;-63
2022/03/14 04:08:52;;;;;;;40.58;22.62;;;;;;;-2.94;64.17;101031.07;1727295;82;20918;-63
2022/03/14 04:11:20;;;;;;;39.65;23.90;;;;;;;-2.94;64.55;101028.12;1747591;80;20869;-63
2022/03/14 04:13:48;;;;;;;43.85;24.40;;;;;;;-2.98;64.34;101033.96;1754507;80;21431;-63
2022/03/14 04:16:18;;;;;;;41.25;24.10;;;;;;;-3.03;64.41;101032.95;1748238;80;20890;-63
2022/03/14 04:18:47;;;;;;;40.33;22.27;;;;;;;-3.09;64.30;101031.50;1752206;80;20952;-63
2022/03/14 04:21:15;;;;;;;41.70;23.27;;;;;;;-3.15;64.48;101039.00;1749650;80;20936;-63
2022/03/14 04:23:42;;;;;;;38.92;23.25;;;;;;;-3.21;64.53;101031.16;1753649;80;20885;-63
2022/03/14 04:26:09;;;;;;;45.03;24.32;;;;;;;-3.24;64.69;101036.18;1753328;81;21341;-63
2022/03/14 04:28:36;;;;;;;36.03;22.62;;;;;;;-3.25;64.90;101035.70;1749410;81;20869;-62
2022/03/14 04:31:03;;;;;;;35.83;23.55;;;;;;;-3.26;64.98;101032.70;1750850;81;21854;-62
2022/03/14 04:33:30;;;;;;;41.73;25.48;;;;;;;-3.26;65.16;101036.13;1749306;80;20930;-64
2022/03/14 04:35:57;;;;;;;42.95;26.97;;;;;;;-3.29;65.01;101046.67;1715051;82;20935;-62
2022/03/14 04:38:27;;;;;;;40.33;24.85;;;;;;;-3.33;65.12;101035.88;1720164;82;21097;-63
2022/03/14 04:40:55;;;;;;;42.05;25.65;;;;;;;-3.35;65.09;101037.55;1721059;82;20974;-64
2022/03/14 04:43:22;;;;;;;46.48;26.12;;;;;;;-3.39;65.27;101043.84;1716739;82;21064;-63
2022/03/14 04:45:49;;;;;;;43.10;26.30;;;;;;;-3.40;65.27;101048.47;1716667;82;20874;-63
2022/03/14 04:48:19;;;;;;;41.75;24.87;;;;;;;-3.39;65.40;101045.12;1747473;81;20933;-63
2022/03/14 04:50:46;;;;;;;45.35;26.17;;;;;;;-3.37;65.34;101051.12;1750958;80;20924;-63
2022/03/14 04:53:13;;;;;;;44.60;26.87;;;;;;;-3.38;65.50;101049.39;1743823;80;21459;-63
2022/03/14 04:55:42;;;;;;;43.68;26.23;;;;;;;-3.32;65.58;101041.47;1746962;80;21134;-63
2022/03/14 04:58:13;;;;;;;39.88;23.22;;;;;;;-3.27;65.69;101051.42;1713211;82;20941;-63
2022/03/14 05:00:40;;;;;;;40.50;25.95;;;;;;;-3.24;65.77;101041.29;1711860;82;20999;-65
2022/03/14 05:03:08;;;;;;;41.03;26.93;;;;;;;-3.21;65.67;101041.38;1749027;82;21499;-65
2022/03/14 05:05:35;;;;;;;43.48;26.02;;;;;;;-3.17;65.80;101043.19;1712991;82;21008;-65
2022/03/14 05:08:02;;;;;;;38.95;25.40;;;;;;;-3.10;65.94;101040.00;1748302;80;21870;-65
2022/03/14 05:10:30;;;;;;;42.38;26.30;;;;;;;-3.06;65.75;101040.95;1712173;82;21087;-64
2022/03/14 05:13:00;;;;;;;45.10;25.60;;;;;;;-3.02;65.96;101041.09;1749013;80;25184;-64
2022/03/14 05:15:28;;;;;;;40.45;25.72;;;;;;;-2.94;66.22;101042.19;1714155;82;20981;-64
2022/03/14 05:17:55;;;;;;;37.38;25.00;;;;;;;-2.89;66.59;101047.41;1747941;80;21471;-64
2022/03/14 05:20:24;;;;;;;37.03;25.60;;;;;;;-2.57;66.69;101050.87;1742718;80;21688;-64
2022/03/14 05:22:51;;;;;;;38.60;25.70;;;;;;;-2.57;66.69;101050.87;1741416;80;21582;-64
2022/03/14 05:25:19;;;;;;;;;;;;;;;-2.20;66.57;101055.69;1745782;80;20970;-63
2022/03/14 05:27:47;;;;;;;40.75;24.52;;;;;;;-1.87;66.77;101049.27;1740871;80;20561;-63
2022/03/14 05:30:13;;;;;;;;;;;;;;;-1.49;66.36;101047.16;1747174;81;21449;-63
2022/03/14 05:32:41;;;;;;;37.73;24.33;;;;;;;-1.13;66.30;101047.97;1746636;80;21230;-63
2022/03/14 05:35:15;;;;;;;40.12;24.00;;;;;;;-0.80;66.06;101054.64;1737533;80;20969;-64
2022/03/14 05:37:42;;;;;;;40.38;25.82;;;;;;;-0.47;65.94;101052.30;1744169;80;21479;-64
2022/03/14 05:40:12;;;;;;;46.25;30.12;;;;;;;-0.11;65.67;101048.65;1738134;80;21893;-64
2022/03/14 05:42:38;;;;;;;45.25;27.15;;;;;;;0.17;65.46;101050.87;1738709;80;20937;-65
2022/03/14 05:45:06;;;;;;;39.98;25.20;;;;;;;0.41;65.26;101046.95;1741434;80;21002;-65
2022/03/14 05:47:32;;;;;;;39.35;24.80;;;;;;;0.58;65.18;101051.06;1742330;80;20964;-65
2022/03/14 05:49:59;;;;;;;40.63;26.30;;;;;;;0.76;65.16;101044.91;1747124;80;20850;-63
2022/03/14 05:52:26;;;;;;;42.03;26.97;;;;;;;0.89;65.07;101045.92;1714344;82;21437;-66
2022/03/14 05:54:52;;;;;;;37.83;27.27;;;;;;;1.13;65.15;101044.53;1724243;82;20922;-62
2022/03/14 05:57:19;;;;;;;41.35;26.23;;;;;;;1.32;65.01;101047.77;1734845;81;21020;-60
2022/03/14 05:59:46;;;;;;;37.55;26.20;;;;;;;1.49;64.93;101052.67;1721687;82;21476;-63
2022/03/14 06:02:13;;;;;;;39.07;25.07;;;;;;;1.65;64.78;101048.96;1720980;81;20874;-61
2022/03/14 06:04:39;;;;;;;40.08;29.55;;;;;;;1.87;64.95;101050.90;1723345;83;21661;-62
2022/03/14 06:07:21;;;;;;;39.23;27.17;;;;;;;1.99;64.73;101043.30;1730727;81;21013;-68
2022/03/14 06:09:36;;;;;;;41.95;25.95;;;;;;;2.14;64.72;101040.42;1715655;81;21316;-65
2022/03/14 06:12:03;;;;;;;34.65;23.38;;;;;;;2.27;64.83;101043.54;1729888;81;21433;-67
2022/03/14 06:14:30;;;;;;;45.58;26.93;;;;;;;2.42;64.65;101047.50;1723432;83;28225;-65
2022/03/14 06:16:57;;;;;;;38.85;23.83;;;;;;;2.56;64.66;101054.48;1733053;81;21001;-66
2022/03/14 06:19:23;;;;;;;31.40;23.18;;;;;;;2.67;64.62;101045.09;1692098;83;20954;-65
2022/03/14 06:21:50;;;;;;;34.80;24.33;;;;;;;2.77;64.53;101048.58;1693616;83;21025;-65
2022/03/14 06:24:17;;;;;;;33.63;24.07;;;;;;;2.90;64.47;101053.82;1729209;81;24229;-66
2022/03/14 06:26:44;;;;;;;35.38;21.93;;;;;;;2.98;64.44;101050.44;1718329;82;21570;-66
2022/03/14 06:29:11;;;;;;;31.37;22.82;;;;;;;3.06;64.34;101052.19;1717877;82;20897;-66
2022/03/14 06:31:38;;;;;;;27.85;19.85;;;;;;;3.10;64.15;101053.06;1718503;82;20946;-66
2022/03/14 06:34:04;;;;;;;30.03;19.53;;;;;;;3.00;64.11;101056.47;1723685;82;21001;-66
2022/03/14 06:36:31;;;;;;;29.20;19.70;;;;;;;3.01;64.01;101047.86;1683769;84;20968;-66
2022/03/14 06:38:59;;;;;;;30.32;20.57;;;;;;;2.96;64.11;101052.13;1691371;84;20961;-66
2022/03/14 06:41:27;;;;;;;28.07;18.90;;;;;;;2.97;64.21;101047.39;1688807;83;21526;-66
2022/03/14 06:43:56;;;;;;;27.10;18.87;;;;;;;3.06;64.19;101056.50;1696157;84;44746;-66
2022/03/14 06:46:23;;;;;;;36.30;24.35;;;;;;;3.14;64.06;101054.81;1692620;84;21147;-66
2022/03/14 06:48:50;;;;;;;26.97;20.05;;;;;;;3.16;64.13;101057.39;1688820;83;21444;-66
2022/03/14 06:51:17;;;;;;;30.80;24.17;;;;;;;3.19;64.05;101059.55;1700654;83;20957;-66
2022/03/14 06:53:43;;;;;;;36.73;24.73;;;;;;;3.27;64.08;101059.15;1687846;83;20988;-66
2022/03/14 06:56:10;;;;;;;33.23;24.20;;;;;;;3.45;64.35;101058.81;1709447;81;21669;-66
2022/03/14 06:58:39;;;;;;;31.12;21.55;;;;;;;3.66;64.23;101054.97;1755182;80;21096;-66
2022/03/14 07:01:05;;;;;;;25.05;18.07;;;;;;;3.80;64.05;101058.44;1750748;80;20901;-69
2022/03/14 07:03:32;;;;;;;22.67;18.60;;;;;;;3.80;63.63;101061.03;1710897;82;20942;-66
2022/03/14 07:05:59;;;;;;;28.73;22.05;;;;;;;3.75;63.54;101057.60;1711367;82;20985;-66
2022/03/14 07:08:25;;;;;;;29.52;21.62;;;;;;;3.67;63.72;101064.47;1741414;81;20953;-66
2022/03/14 07:10:54;;;;;;;25.08;17.07;;;;;;;3.69;63.53;101076.94;1752090;80;21440;-67
2022/03/14 07:13:23;;;;;;;35.63;20.23;;;;;;;3.42;63.32;101075.55;1731710;81;20867;-66
2022/03/14 07:15:49;;;;;;;29.98;20.95;;;;;;;3.06;63.23;101077.14;1695504;81;21540;-66
2022/03/14 07:18:16;;;;;;;34.08;21.60;;;;;;;2.76;63.18;101073.52;1726619;82;21527;-66
2022/03/14 07:20:43;;;;;;;29.25;20.12;;;;;;;2.66;63.53;101080.75;1737096;81;20930;-66
2022/03/14 07:23:10;;;;;;;37.57;22.13;;;;;;;2.65;63.66;101085.48;1747948;81;21042;-66
2022/03/14 07:25:39;;;;;;;35.63;22.25;;;;;;;2.69;63.65;101084.66;1748492;81;20977;-67
2022/03/14 07:28:11;;;;;;;33.05;21.25;;;;;;;2.66;63.63;101067.85;1748041;81;20871;-66
2022/03/14 07:30:41;;;;;;;34.80;21.55;;;;;;;2.59;63.64;101080.28;1762283;80;20894;-66
2022/03/14 07:33:08;;;;;;;30.68;20.80;;;;;;;2.48;63.80;101080.20;1710791;82;20918;-66
2022/03/14 07:35:35;;;;;;;35.75;21.62;;;;;;;2.28;63.64;101087.78;1749441;80;21025;-66
2022/03/14 07:38:03;;;;;;;31.23;20.72;;;;;;;2.15;64.02;101088.52;1748526;81;21487;-66
2022/03/14 07:40:31;;;;;;;30.08;21.57;;;;;;;2.09;63.91;101080.73;1720279;82;20959;-66
2022/03/14 07:42:59;;;;;;;32.63;21.93;;;;;;;1.94;64.01;101081.03;1715005;82;21001;-66
2022/03/14 07:45:26;;;;;;;;;;;;;;;1.91;64.27;101082.30;1753360;80;20890;-66
2022/03/14 07:47:54;;;;;;;35.55;22.87;;;;;;;1.97;64.44;101079.77;1745476;81;21102;-66
2022/03/14 07:50:23;;;;;;;33.98;21.30;;;;;;;1.99;64.16;101079.80;1744610;80;21507;-66
2022/03/14 07:52:51;;;;;;;37.08;22.35;;;;;;;1.92;64.27;101081.44;1720719;81;20887;-66
2022/03/14 07:55:18;;;;;;;36.08;22.37;;;;;;;1.93;64.40;101078.42;1738842;81;20910;-66
2022/03/14 07:57:47;;;;;;;32.90;19.52;;;;;;;1.95;64.52;101078.89;1736860;81;20928;-69
2022/03/14 08:00:18;;;;;;;36.70;20.43;;;;;;;2.03;64.42;101078.97;1708694;82;21226;-65
2022/03/14 08:02:46;;;;;;;33.30;20.17;;;;;;;2.09;64.69;101080.73;1739787;81;20981;-65
2022/03/14 08:05:15;;;;;;;42.13;22.07;;;;;;;2.28;64.72;101074.89;1751473;81;26407;-65
2022/03/14 08:07:46;;;;;;;30.00;21.45;;;;;;;2.46;64.59;101081.89;1745257;80;20953;-66
2022/03/14 08:10:15;;;;;;;33.38;20.43;;;;;;;2.61;64.47;101083.75;1744193;80;21519;-65
2022/03/14 08:12:51;;;;;;;32.95;20.10;;;;;;;2.68;64.32;101085.50;1743958;80;22175;-66
2022/03/14 08:15:30;;;;;;;29.23;18.15;;;;;;;2.73;64.14;101086.40;1749800;81;21545;-64
2022/03/14 08:18:00;;;;;;;28.87;18.80;;;;;;;2.73;63.94;101083.81;1740874;80;20894;-65
2022/03/14 08:20:27;;;;;;;37.38;18.60;;;;;;;2.67;63.93;101081.20;1750579;81;21457;-65
2022/03/14 08:22:58;;;;;;;29.57;17.95;;;;;;;2.69;63.96;101076.92;1747292;80;21040;-65
2022/03/14 08:25:25;;;;;;;30.85;19.98;;;;;;;2.70;63.99;101073.48;1748682;81;21006;-66
2022/03/14 08:27:53;;;;;;;23.12;14.87;;;;;;;2.73;63.96;101070.92;1746409;80;20940;-65
2022/03/14 08:30:25;;;;;;;28.07;17.32;;;;;;;2.73;63.64;101063.19;1741709;81;20866;-65
2022/03/14 08:32:50;;;;;;;27.65;17.48;;;;;;;2.76;63.68;101058.05;1753417;80;20933;-65
2022/03/14 08:35:19;;;;;;;26.60;17.45;;;;;;;2.81;63.79;101051.20;1749444;81;20961;-65
2022/03/14 08:37:46;;;;;;;30.32;18.70;;;;;;;2.89;63.78;101052.11;1758569;80;21868;-65
2022/03/14 08:40:27;;;;;;;26.73;18.23;;;;;;;3.03;63.71;101061.64;1708279;82;26936;-65
2022/03/14 08:42:58;;;;;;;42.33;21.25;;;;;;;3.19;63.73;101058.25;1706989;82;20957;-66
2022/03/14 08:45:25;;;;;;;25.80;17.25;;;;;;;3.34;63.70;101053.17;1701721;82;21464;-66
2022/03/14 08:47:54;;;;;;;27.58;17.40;;;;;;;3.43;62.98;101052.34;1705873;83;21925;-66
2022/03/14 08:50:26;;;;;;;28.17;18.23;;;;;;;3.45;63.08;101044.61;1706036;83;21118;-66
2022/03/14 08:52:54;;;;;;;27.32;17.30;;;;;;;3.47;62.86;101042.87;1707490;82;21875;-65
2022/03/14 08:55:21;;;;;;;24.63;16.65;;;;;;;3.54;62.82;101049.78;1720613;83;21907;-66
2022/03/14 08:57:48;;;;;;;23.73;18.35;;;;;;;3.63;62.81;101044.64;1697773;82;21419;-66
2022/03/14 09:00:17;;;;;;;25.82;17.98;;;;;;;3.75;62.92;101045.97;1689483;83;20998;-66
2022/03/14 09:02:43;;;;;;;32.65;17.95;;;;;;;3.89;62.54;101046.41;1697389;84;22026;-65
2022/03/14 09:05:11;;;;;;;29.00;16.30;;;;;;;3.96;62.31;101035.23;1698039;84;20898;-66
2022/03/14 09:07:38;;;;;;;25.45;17.12;;;;;;;4.03;61.80;101036.94;1696163;83;21513;-65
2022/03/14 09:10:14;;;;;;;26.57;19.10;;;;;;;4.11;62.11;101021.44;1689835;83;20958;-65
2022/03/14 09:12:50;;;;;;;31.90;19.05;;;;;;;4.20;62.29;101032.66;1705698;82;20934;-65
2022/03/14 09:15:26;;;;;;;26.55;17.40;;;;;;;4.39;62.04;101022.28;1718554;81;21874;-66
2022/03/14 09:17:57;;;;;;;25.15;16.02;;;;;;;4.51;61.75;101020.99;1698837;83;21415;-65
2022/03/14 09:20:25;;;;;;;23.42;16.37;;;;;;;4.59;61.43;101011.90;1699433;83;20910;-66
2022/03/14 09:23:00;;;;;;;24.80;17.20;;;;;;;4.61;61.03;101020.09;1683314;83;20963;-66
2022/03/14 09:25:30;;;;;;;36.70;17.65;;;;;;;4.65;61.19;101023.12;1691144;83;20994;-65
2022/03/14 09:27:59;;;;;;;;;;;;;;;4.76;61.33;101029.97;1696849;84;21070;-65
2022/03/14 09:30:26;;;;;;;28.30;18.17;;;;;;;4.91;61.16;101029.95;1684996;83;20112;-66
2022/03/14 09:32:56;;;;;;;31.60;18.20;;;;;;;5.06;61.25;101031.17;1697367;83;21446;-65
2022/03/14 09:35:26;;;;;;;32.00;16.42;;;;;;;5.14;60.91;101027.27;1708504;83;21480;-65
2022/03/14 09:37:57;;;;;;;25.30;18.02;;;;;;;5.26;60.70;101025.05;1727107;82;20929;-65
2022/03/14 09:40:25;;;;;;;29.55;17.75;;;;;;;5.33;60.22;101025.46;1726024;82;21893;-65
2022/03/14 09:42:55;;;;;;;30.23;18.52;;;;;;;5.40;60.13;101024.55;1723849;81;20898;-64
2022/03/14 09:45:26;;;;;;;25.12;17.32;;;;;;;5.47;60.10;101018.48;1702651;82;20899;-65
2022/03/14 09:48:01;;;;;;;25.08;17.17;;;;;;;5.52;59.58;101023.20;1711698;82;20924;-66
2022/03/14 09:50:38;;;;;;;73.83;38.38;;;;;;;5.64;58.92;101025.30;1688096;82;21030;-65
2022/03/14 09:53:11;;;;;;;60.67;33.18;;;;;;;5.69;59.83;101026.13;1707584;82;21112;-65
2022/03/14 09:55:42;;;;;;;32.63;18.92;;;;;;;5.84;59.50;101013.05;1712583;82;20982;-63
2022/03/14 09:58:14;;;;;;;25.97;18.52;;;;;;;5.91;58.76;101016.04;1726961;80;20957;-65
2022/03/14 10:00:48;;;;;;;38.17;20.60;;;;;;;5.90;59.23;101010.41;1731497;80;20930;-65
2022/03/14 10:03:26;;;;;;;33.88;19.20;;;;;;;5.93;59.10;101015.61;1733875;81;20930;-65
2022/03/14 10:05:50;;;;;;;27.67;18.07;;;;;;;5.90;58.90;101015.59;1729971;81;21040;-65
2022/03/14 10:08:18;;;;;;;27.60;18.70;;;;;;;5.89;58.74;101008.70;1737645;81;21444;-65
2022/03/14 10:10:47;;;;;;;;;;;;;;;5.87;58.57;100998.77;1746815;81;20931;-65
2022/03/14 10:13:17;;;;;;;30.50;20.40;;;;;;;5.88;58.54;101001.81;1730805;82;20088;-65
2022/03/14 10:15:45;;;;;;;33.23;19.52;;;;;;;5.87;58.46;101006.99;1716723;83;21487;-66
2022/03/14 10:18:16;;;;;;;35.35;16.37;;;;;;;5.89;58.40;100998.33;1722496;82;21057;-67
2022/03/14 10:21:06;;;;;;;27.15;17.65;;;;;;;5.84;57.25;101000.09;1714912;82;21012;-65
2022/03/14 10:23:43;;;;;;;27.25;18.70;;;;;;;5.77;57.69;100999.70;1717426;82;20899;-68
2022/03/14 10:26:19;;;;;;;28.80;18.07;;;;;;;5.85;58.39;101005.69;1722344;82;20925;-66
2022/03/14 10:28:49;;;;;;;35.10;20.72;;;;;;;6.04;58.28;101012.49;1720704;82;20941;-65
2022/03/14 10:31:20;;;;;;;48.90;26.97;;;;;;;6.14;57.97;101015.03;1716692;82;21380;-66
2022/03/14 10:33:48;;;;;;;59.58;42.80;;;;;;;6.19;58.09;101014.53;1722586;82;20980;-66
2022/03/14 10:36:14;;;;;;;36.83;24.47;;;;;;;6.25;57.79;101012.77;1704623;82;20961;-66
2022/03/14 10:38:44;;;;;;;33.20;20.45;;;;;;;6.23;57.65;101008.46;1716176;83;20973;-66
2022/03/14 10:41:17;;;;;;;25.27;19.30;;;;;;;6.21;57.49;101014.09;1719742;82;20969;-66
2022/03/14 10:43:44;;;;;;;27.20;20.35;;;;;;;6.20;57.26;101005.89;1716289;82;21046;-63
2022/03/14 10:46:10;;;;;;;29.05;19.07;;;;;;;6.11;57.39;101009.43;1707076;82;20952;-65
2022/03/14 10:48:43;;;;;;;29.82;20.02;;;;;;;6.21;57.40;101001.12;1716558;82;20989;-67
2022/03/14 10:51:13;;;;;;;26.70;19.52;;;;;;;6.25;57.53;101004.98;1691548;83;21006;-67
2022/03/14 10:53:49;;;;;;;30.75;19.30;;;;;;;6.41;57.44;100999.22;1727327;82;21009;-66
2022/03/14 10:56:17;;;;;;;27.22;18.90;;;;;;;6.42;57.36;100997.48;1719989;81;21073;-64
2022/03/14 10:58:44;;;;;;;34.88;18.65;;;;;;;6.44;57.06;100990.11;1718856;82;20956;-66
2022/03/14 11:01:12;;;;;;;25.57;16.87;;;;;;;6.41;57.14;100990.14;1757095;81;20926;-67
2022/03/14 11:03:42;;;;;;;27.02;17.42;;;;;;;6.36;56.28;100978.95;1732319;81;20934;-66
2022/03/14 11:06:13;;;;;;;32.63;22.90;;;;;;;6.31;56.78;100988.50;1744852;81;20953;-66
2022/03/14 11:08:47;;;;;;;26.50;16.30;;;;;;;6.37;56.92;100996.22;1745461;81;21080;-66
2022/03/14 11:11:22;;;;;;;29.72;18.92;;;;;;;6.38;56.05;100992.73;1736611;81;20914;-65
2022/03/14 11:13:55;;;;;;;32.20;19.12;;;;;;;6.40;56.25;100983.66;1750901;81;21003;-66
2022/03/14 11:16:26;;;;;;;29.35;19.27;;;;;;;6.40;56.22;100987.55;1748602;81;21419;-66
2022/03/14 11:18:53;;;;;;;31.10;19.37;;;;;;;6.42;56.47;100972.39;1740348;81;20963;-65
2022/03/14 11:21:27;;;;;;;40.52;20.23;;;;;;;6.50;56.21;100977.06;1737609;81;20998;-65